CheckWX is a tool to help pilots better visualize weather data.  It is not intended as a substitute for an official pre-flight weather briefing.

07:27:50 UTC

KSZY METAR
Robert Sibley Airport
Selmer, Tennessee, USA
Current

33 mins ago

KSZY 260655Z AUTO 20004KT 10SM CLR 21/19 A3008 RMK A01
Observed
May-26 @ 06:55 UTC
Wind
  • 200° at 4 KTS
Visibility
10 SM
Flight Rules
VFR
Cloud Levels
  • Clear skies
Temperature
21°C / 70°F
Dewpoint
19°C / 66°F
Humidity
88%
Altimeter
30.08" Hg
Pressure
1018.62 hPa
Previous

53 mins ago

KSZY 260635Z AUTO 00000KT 10SM CLR 20/18 A3009 RMK A01
Observed
May-26 @ 06:35 UTC
Visibility
10 SM
Flight Rules
VFR
Cloud Levels
  • Clear skies
Temperature
20°C / 68°F
Dewpoint
18°C / 64°F
Humidity
88%
Altimeter
30.09" Hg
Pressure
1018.92 hPa
Previous

1 hour ago

KSZY 260615Z AUTO 00000KT 10SM CLR 20/19 A3009 RMK A01
Observed
May-26 @ 06:15 UTC
Visibility
10 SM
Flight Rules
VFR
Cloud Levels
  • Clear skies
Temperature
20°C / 68°F
Dewpoint
19°C / 66°F
Humidity
94%
Altimeter
30.09" Hg
Pressure
1018.92 hPa